createdAt,value
2018-08-30T00:01:31.113Z,19.90
2018-08-30T00:04:00.147Z,19.80
2018-08-30T00:06:30.476Z,19.80
2018-08-30T00:09:00.012Z,19.80
2018-08-30T00:11:29.077Z,19.70
2018-08-30T00:13:58.047Z,19.70
2018-08-30T00:16:27.006Z,19.60
2018-08-30T00:18:56.681Z,19.50
2018-08-30T00:21:25.768Z,19.50
2018-08-30T00:23:55.562Z,19.50
2018-08-30T00:26:24.693Z,19.50
2018-08-30T00:28:53.838Z,19.50
2018-08-30T00:31:23.365Z,19.40
2018-08-30T00:33:52.497Z,19.30
2018-08-30T00:36:21.641Z,19.20
2018-08-30T00:38:50.676Z,19.20
2018-08-30T00:41:19.783Z,19.10
2018-08-30T00:43:48.943Z,19.00
2018-08-30T00:46:18.094Z,19.00
2018-08-30T00:48:47.082Z,19.00
2018-08-30T00:51:17.467Z,18.90
2018-08-30T00:53:46.500Z,18.80
2018-08-30T00:56:15.535Z,18.80
2018-08-30T00:58:45.448Z,18.80
2018-08-30T01:01:15.187Z,18.80
2018-08-30T01:03:44.177Z,18.70
2018-08-30T01:06:13.232Z,18.70
2018-08-30T01:08:42.331Z,18.70
2018-08-30T01:13:59.353Z,18.60
2018-08-30T01:16:29.257Z,18.60
2018-08-30T01:18:59.523Z,18.60
2018-08-30T01:21:28.944Z,18.50
2018-08-30T01:23:58.730Z,18.50
2018-08-30T01:26:28.812Z,18.60
2018-08-30T01:28:58.536Z,18.60
2018-08-30T01:31:28.394Z,18.60
2018-08-30T01:33:58.146Z,18.50
2018-08-30T01:36:29.718Z,18.50
2018-08-30T01:38:58.970Z,18.50
2018-08-30T01:41:29.553Z,18.50
2018-08-30T01:46:40.775Z,18.50
2018-08-30T01:49:10.032Z,18.50
2018-08-30T01:51:39.053Z,18.50
2018-08-30T01:54:12.749Z,18.50
2018-08-30T01:56:41.898Z,18.50
2018-08-30T01:59:12.823Z,18.50
2018-08-30T02:01:42.404Z,18.50
2018-08-30T02:04:11.471Z,18.50
2018-08-30T02:06:40.649Z,18.50
2018-08-30T02:09:11.966Z,18.50
2018-08-30T02:11:42.844Z,18.50
2018-08-30T02:14:11.928Z,18.50
2018-08-30T02:16:47.210Z,18.50
2018-08-30T02:19:16.316Z,18.50
2018-08-30T02:21:45.386Z,18.50
2018-08-30T02:24:14.518Z,18.40
2018-08-30T02:26:43.796Z,18.40
2018-08-30T02:29:12.907Z,18.40
2018-08-30T02:31:41.996Z,18.30
2018-08-30T02:34:10.953Z,18.20
2018-08-30T02:36:46.156Z,18.10
2018-08-30T02:39:15.325Z,17.90
2018-08-30T02:41:44.330Z,17.80
2018-08-30T02:44:13.356Z,17.60
2018-08-30T02:46:43.421Z,17.50
2018-08-30T02:49:14.584Z,17.30
2018-08-30T02:51:43.641Z,17.20
2018-08-30T02:54:12.672Z,17.10
2018-08-30T02:56:56.006Z,17.10
2018-08-30T02:59:25.055Z,17.00
2018-08-30T03:01:54.097Z,16.90
2018-08-30T03:04:23.134Z,16.90
2018-08-30T03:06:53.938Z,16.90
2018-08-30T03:09:24.260Z,16.80
2018-08-30T03:11:53.441Z,16.80
2018-08-30T03:14:22.589Z,16.70
2018-08-30T03:16:51.649Z,16.80
2018-08-30T03:19:20.751Z,16.60
2018-08-30T03:21:52.031Z,16.60
2018-08-30T03:24:21.053Z,16.50
2018-08-30T03:26:53.761Z,16.40
2018-08-30T03:29:27.953Z,16.30
2018-08-30T03:31:59.394Z,16.20
2018-08-30T03:34:28.784Z,16.20
2018-08-30T03:37:03.379Z,16.20
2018-08-30T03:39:32.567Z,16.20
2018-08-30T03:42:01.714Z,16.10
2018-08-30T03:44:35.966Z,16.10
2018-08-30T03:47:08.364Z,16.00
2018-08-30T03:49:54.591Z,16.10
2018-08-30T03:52:24.083Z,16.10
2018-08-30T03:55:01.839Z,16.10
2018-08-30T03:57:35.821Z,16.10
2018-08-30T04:00:05.287Z,16.10
2018-08-30T04:02:37.445Z,16.10
2018-08-30T04:05:12.600Z,16.10
2018-08-30T04:07:42.119Z,16.10
2018-08-30T04:10:12.087Z,16.10
2018-08-30T04:13:00.706Z,16.10
2018-08-30T04:15:31.491Z,16.10
2018-08-30T04:18:00.636Z,16.10
2018-08-30T04:20:29.710Z,16.10
2018-08-30T04:23:04.997Z,16.10
2018-08-30T04:25:34.223Z,16.10
2018-08-30T04:28:03.226Z,16.10
2018-08-30T04:30:33.210Z,16.10
2018-08-30T04:33:03.101Z,16.10
2018-08-30T04:35:32.875Z,16.10
2018-08-30T04:38:02.613Z,16.20
2018-08-30T04:40:33.273Z,16.20
2018-08-30T04:43:07.876Z,16.20
2018-08-30T04:45:53.002Z,16.20
2018-08-30T04:48:23.264Z,16.20
2018-08-30T04:50:56.798Z,16.20
2018-08-30T04:53:33.154Z,16.20
2018-08-30T04:56:03.261Z,16.20
2018-08-30T04:58:33.087Z,16.20
2018-08-30T05:01:02.772Z,16.20
2018-08-30T05:03:32.526Z,16.20
2018-08-30T05:06:05.043Z,16.10
2018-08-30T05:08:34.140Z,16.20
2018-08-30T05:11:07.341Z,16.10
2018-08-30T05:13:37.623Z,16.10
2018-08-30T05:16:07.701Z,16.10
2018-08-30T05:21:53.958Z,16.10
2018-08-30T05:24:23.236Z,16.10
2018-08-30T05:26:52.554Z,16.10
2018-08-30T05:29:26.708Z,16.10
2018-08-30T05:31:56.039Z,16.10
2018-08-30T05:34:25.041Z,16.10
2018-08-30T05:37:07.279Z,16.10
2018-08-30T05:39:37.374Z,16.10
2018-08-30T05:42:07.067Z,16.10
2018-08-30T05:44:36.879Z,16.20
2018-08-30T05:47:06.913Z,16.20
2018-08-30T05:49:36.831Z,16.20
2018-08-30T05:52:06.863Z,16.20
2018-08-30T05:54:37.502Z,16.20
2018-08-30T05:57:07.570Z,16.20
2018-08-30T05:59:37.635Z,16.10
2018-08-30T06:02:07.398Z,16.20
2018-08-30T06:04:37.236Z,16.10
2018-08-30T06:07:09.109Z,16.10
2018-08-30T06:09:38.169Z,16.10
2018-08-30T06:12:07.453Z,16.10
2018-08-30T06:14:37.292Z,16.10
2018-08-30T06:17:07.435Z,16.10
2018-08-30T06:19:38.634Z,16.10
2018-08-30T06:22:08.541Z,16.10
2018-08-30T06:24:38.916Z,16.10
2018-08-30T06:27:14.917Z,16.10
2018-08-30T06:29:46.670Z,16.10
2018-08-30T06:32:15.726Z,16.20
2018-08-30T06:34:51.026Z,16.20
2018-08-30T06:37:20.411Z,16.20
2018-08-30T06:39:49.537Z,16.20
2018-08-30T06:42:18.655Z,16.30
2018-08-30T06:44:47.741Z,16.30
2018-08-30T06:47:16.767Z,16.40
2018-08-30T06:49:45.835Z,16.40
2018-08-30T06:52:14.934Z,16.40
2018-08-30T06:54:44.097Z,16.40
2018-08-30T06:57:13.089Z,16.40
2018-08-30T07:00:00.241Z,16.40
2018-08-30T07:02:40.615Z,16.40
2018-08-30T07:05:10.272Z,16.30
2018-08-30T07:07:39.301Z,16.30
2018-08-30T07:10:08.358Z,16.30
2018-08-30T07:12:38.173Z,16.40
2018-08-30T07:15:08.060Z,16.40
2018-08-30T07:17:37.292Z,16.40
2018-08-30T07:20:07.450Z,16.50
2018-08-30T07:22:36.699Z,16.50
2018-08-30T07:25:08.918Z,16.60
2018-08-30T07:27:37.919Z,16.60
2018-08-30T07:30:10.138Z,16.60
2018-08-30T07:32:39.159Z,16.60
2018-08-30T07:35:08.299Z,16.60
2018-08-30T07:37:37.351Z,16.60
2018-08-30T07:40:06.829Z,16.70
2018-08-30T07:42:36.343Z,16.70
2018-08-30T07:45:07.697Z,16.70
2018-08-30T07:47:37.364Z,16.70
2018-08-30T07:50:07.408Z,16.80
2018-08-30T07:52:37.197Z,16.80
2018-08-30T07:55:08.285Z,16.80
2018-08-30T07:57:37.381Z,16.70
2018-08-30T08:00:07.231Z,16.70
2018-08-30T08:02:36.800Z,16.80
2018-08-30T08:05:07.462Z,16.80
2018-08-30T08:07:37.416Z,16.80
2018-08-30T08:10:06.579Z,16.90
2018-08-30T08:12:35.728Z,17.00
2018-08-30T08:15:05.297Z,17.00
2018-08-30T08:17:34.486Z,17.00
2018-08-30T08:20:04.582Z,17.00
2018-08-30T08:22:34.244Z,17.00
2018-08-30T08:25:04.844Z,17.10
2018-08-30T08:27:34.982Z,17.00
2018-08-30T08:30:06.679Z,17.10
2018-08-30T08:32:35.702Z,17.10
2018-08-30T08:35:05.946Z,17.20
2018-08-30T08:37:35.508Z,17.20
2018-08-30T08:40:05.178Z,17.30
2018-08-30T08:42:34.699Z,17.30
2018-08-30T08:45:10.656Z,17.50
2018-08-30T08:47:39.628Z,17.50
2018-08-30T08:50:08.625Z,17.70
2018-08-30T08:52:37.570Z,17.70
2018-08-30T08:55:06.810Z,17.70
2018-08-30T08:57:35.858Z,17.70
2018-08-30T09:00:05.627Z,17.70
2018-08-30T09:02:35.394Z,17.70
2018-08-30T09:05:05.270Z,17.70
2018-08-30T09:07:34.858Z,17.70
2018-08-30T09:10:04.987Z,17.60
2018-08-30T09:12:35.002Z,17.60
2018-08-30T09:15:05.070Z,17.50
2018-08-30T09:17:34.780Z,17.50
2018-08-30T09:20:04.946Z,17.60
2018-08-30T09:22:34.735Z,17.60
2018-08-30T09:25:04.719Z,17.60
2018-08-30T09:27:34.289Z,17.80
2018-08-30T09:30:04.450Z,18.00
2018-08-30T09:32:34.808Z,18.30
2018-08-30T09:35:05.052Z,18.50
2018-08-30T09:37:34.791Z,18.60
2018-08-30T09:40:04.558Z,18.80
2018-08-30T09:42:34.410Z,19.10
2018-08-30T09:45:04.442Z,19.20
2018-08-30T09:47:34.204Z,19.00
2018-08-30T09:50:04.451Z,19.00
2018-08-30T09:52:34.318Z,18.80
2018-08-30T09:55:06.305Z,18.70
2018-08-30T09:57:35.585Z,18.80
2018-08-30T10:00:05.196Z,18.90
2018-08-30T10:02:39.527Z,18.90
2018-08-30T10:05:09.750Z,18.80
2018-08-30T10:07:38.846Z,18.80
2018-08-30T10:10:08.128Z,18.70
2018-08-30T10:12:38.510Z,18.50
2018-08-30T10:15:08.429Z,18.30
2018-08-30T10:17:37.494Z,18.30
2018-08-30T10:20:06.841Z,18.50
2018-08-30T10:22:35.935Z,18.60
2018-08-30T10:25:05.015Z,18.70
2018-08-30T10:27:34.130Z,18.80
2018-08-30T10:30:03.453Z,18.70
2018-08-30T10:32:33.505Z,18.80
2018-08-30T10:35:03.119Z,18.90
2018-08-30T10:37:32.783Z,18.90
2018-08-30T10:40:03.155Z,18.80
2018-08-30T10:42:33.044Z,18.60
2018-08-30T10:45:02.928Z,18.30
2018-08-30T10:47:33.497Z,18.30
2018-08-30T10:50:03.719Z,18.40
2018-08-30T10:52:32.822Z,18.50
2018-08-30T10:55:03.023Z,18.40
2018-08-30T10:57:32.690Z,18.30
2018-08-30T11:00:04.425Z,18.30
2018-08-30T11:02:33.954Z,18.30
2018-08-30T11:05:03.070Z,18.30
2018-08-30T11:07:32.514Z,18.20
2018-08-30T11:10:02.178Z,18.10
2018-08-30T11:12:31.275Z,18.20
2018-08-30T11:15:00.823Z,18.10
2018-08-30T11:17:31.271Z,18.00
2018-08-30T11:20:01.426Z,17.80
2018-08-30T11:22:31.187Z,17.70
2018-08-30T11:25:02.142Z,17.70
2018-08-30T11:27:31.398Z,17.60
2018-08-30T11:30:01.269Z,17.60
2018-08-30T11:32:31.041Z,17.50
2018-08-30T11:35:01.188Z,17.40
2018-08-30T11:37:30.745Z,17.40
2018-08-30T11:40:00.397Z,17.50
2018-08-30T11:42:30.114Z,17.50
2018-08-30T11:45:00.698Z,17.40
2018-08-30T11:47:31.352Z,17.60
2018-08-30T11:50:01.242Z,17.70
2018-08-30T11:52:32.830Z,17.70
2018-08-30T11:55:02.412Z,17.80
2018-08-30T11:57:31.548Z,17.70
2018-08-30T12:00:01.225Z,17.50
2018-08-30T12:02:31.034Z,17.40
2018-08-30T12:05:01.914Z,17.40
2018-08-30T12:07:35.734Z,17.30
2018-08-30T12:10:06.409Z,17.30
2018-08-30T12:12:41.821Z,17.30
2018-08-30T12:15:10.974Z,17.30
2018-08-30T12:17:40.061Z,17.30
2018-08-30T12:20:09.153Z,17.40
2018-08-30T12:22:38.313Z,17.40
2018-08-30T12:25:07.993Z,17.40
2018-08-30T12:27:37.097Z,17.50
2018-08-30T12:30:06.404Z,17.40
2018-08-30T12:32:35.695Z,17.40
2018-08-30T12:35:04.981Z,17.40
2018-08-30T12:37:34.055Z,17.40
2018-08-30T12:40:03.303Z,17.40
2018-08-30T12:42:32.525Z,17.40
2018-08-30T12:45:01.649Z,17.50
2018-08-30T12:47:31.303Z,17.70
2018-08-30T12:50:01.125Z,17.70
2018-08-30T12:52:31.060Z,17.70
2018-08-30T12:55:02.199Z,17.90
2018-08-30T12:57:31.909Z,17.80
2018-08-30T13:00:01.797Z,17.80
2018-08-30T13:02:31.350Z,17.70
2018-08-30T13:05:02.621Z,17.50
2018-08-30T13:07:32.663Z,17.20
2018-08-30T13:10:01.953Z,17.00
2018-08-30T13:12:31.851Z,16.60
2018-08-30T13:15:04.751Z,16.30
2018-08-30T13:17:34.246Z,16.10
2018-08-30T13:20:05.038Z,16.10
2018-08-30T13:22:34.802Z,16.20
2018-08-30T13:25:03.935Z,16.30
2018-08-30T13:27:32.928Z,16.50
2018-08-30T13:30:02.157Z,16.50
2018-08-30T13:32:31.443Z,16.50
2018-08-30T13:35:01.982Z,16.50
2018-08-30T13:37:31.505Z,16.70
2018-08-30T13:40:01.593Z,16.90
2018-08-30T13:42:31.834Z,17.10
2018-08-30T13:45:01.541Z,17.20
2018-08-30T13:47:31.417Z,17.20
2018-08-30T13:50:01.093Z,17.10
2018-08-30T13:52:32.946Z,17.20
2018-08-30T13:55:02.238Z,17.30
2018-08-30T13:57:32.110Z,17.40
2018-08-30T14:00:01.793Z,17.50
2018-08-30T14:02:31.106Z,17.40
2018-08-30T14:05:01.179Z,17.40
2018-08-30T14:07:30.552Z,17.60
2018-08-30T14:10:01.565Z,17.80
2018-08-30T14:12:31.277Z,18.00
2018-08-30T14:15:00.651Z,18.00
2018-08-30T14:17:30.290Z,17.90
2018-08-30T14:20:00.031Z,17.90
2018-08-30T14:22:29.955Z,17.90
2018-08-30T14:24:59.897Z,17.90
2018-08-30T14:27:29.904Z,17.90
2018-08-30T14:29:59.706Z,18.10
2018-08-30T14:32:29.487Z,18.20
2018-08-30T14:34:59.818Z,18.30
2018-08-30T14:37:29.570Z,18.20
2018-08-30T14:39:59.779Z,18.10
2018-08-30T14:42:29.477Z,18.10
2018-08-30T14:44:59.259Z,18.00
2018-08-30T14:47:29.248Z,17.90
2018-08-30T14:49:58.770Z,17.90
2018-08-30T14:52:28.803Z,17.90
2018-08-30T14:54:59.820Z,17.90
2018-08-30T14:57:32.468Z,17.90
2018-08-30T15:00:01.540Z,17.90
2018-08-30T15:02:30.544Z,18.00
2018-08-30T15:05:00.182Z,18.10
2018-08-30T15:07:30.628Z,18.20
2018-08-30T15:10:01.775Z,18.30
2018-08-30T15:12:32.916Z,18.30
2018-08-30T15:15:03.318Z,18.20
2018-08-30T15:17:32.863Z,18.10
2018-08-30T15:20:02.199Z,18.10
2018-08-30T15:22:31.356Z,18.10
2018-08-30T15:25:00.948Z,18.10
2018-08-30T15:27:30.838Z,18.20
2018-08-30T15:30:03.360Z,18.30
2018-08-30T15:32:32.609Z,18.40
2018-08-30T15:35:01.729Z,18.50
2018-08-30T15:37:30.940Z,18.40
2018-08-30T15:40:00.686Z,18.50
2018-08-30T15:42:30.318Z,18.40
2018-08-30T15:44:59.982Z,18.40
2018-08-30T15:47:29.798Z,18.50
2018-08-30T15:49:59.994Z,18.50
2018-08-30T15:52:29.966Z,18.50
2018-08-30T15:55:01.083Z,18.60
2018-08-30T15:57:30.962Z,18.70
2018-08-30T16:00:00.900Z,18.70
2018-08-30T16:02:30.802Z,18.70
2018-08-30T16:05:00.777Z,18.60
2018-08-30T16:07:30.358Z,18.60
2018-08-30T16:10:00.345Z,18.80
2018-08-30T16:12:30.149Z,18.80
2018-08-30T16:14:59.970Z,18.80
2018-08-30T16:17:29.865Z,18.80
2018-08-30T16:19:58.956Z,19.00
2018-08-30T16:22:39.901Z,19.00
2018-08-30T16:25:09.400Z,19.00
2018-08-30T16:27:38.486Z,19.10
2018-08-30T16:30:07.695Z,19.20
2018-08-30T16:32:36.993Z,19.20
2018-08-30T16:35:06.102Z,19.10
2018-08-30T16:37:35.110Z,19.10
2018-08-30T16:40:04.300Z,19.10
2018-08-30T16:42:35.319Z,19.10
2018-08-30T16:45:06.011Z,19.10
2018-08-30T16:47:35.111Z,19.10
2018-08-30T16:50:04.562Z,19.10
2018-08-30T16:52:37.759Z,18.90
2018-08-30T16:55:09.113Z,18.60
2018-08-30T16:57:38.947Z,18.50
2018-08-30T17:00:08.387Z,18.30
2018-08-30T17:02:37.385Z,18.20
2018-08-30T17:05:10.348Z,18.10
2018-08-30T17:07:40.260Z,18.00
2018-08-30T17:10:09.986Z,17.90
2018-08-30T17:12:40.480Z,17.70
2018-08-30T17:15:10.608Z,17.60
2018-08-30T17:17:41.473Z,17.50
2018-08-30T17:20:13.314Z,17.40
2018-08-30T17:22:56.902Z,17.30
2018-08-30T17:25:29.306Z,17.20
2018-08-30T17:28:02.140Z,17.10
2018-08-30T17:30:43.949Z,17.10
2018-08-30T17:36:22.067Z,16.90
2018-08-30T17:38:56.973Z,16.90
2018-08-30T17:41:27.594Z,16.80
2018-08-30T17:43:57.799Z,16.70
2018-08-30T17:46:28.556Z,16.70
2018-08-30T17:48:58.583Z,16.60
2018-08-30T17:51:29.587Z,16.60
2018-08-30T17:53:58.797Z,16.50
2018-08-30T17:56:28.253Z,16.50
2018-08-30T17:59:32.118Z,16.40
2018-08-30T18:02:01.211Z,16.40
2018-08-30T18:04:34.500Z,16.30
2018-08-30T18:07:32.782Z,16.20
2018-08-30T18:10:03.388Z,16.20
2018-08-30T18:15:18.806Z,16.10
2018-08-30T18:17:48.760Z,16.00
2018-08-30T18:20:25.929Z,16.00
2018-08-30T18:22:58.286Z,16.00
2018-08-30T18:25:28.091Z,15.90
2018-08-30T18:27:58.397Z,15.80
2018-08-30T18:30:27.378Z,15.80
2018-08-30T18:32:57.547Z,15.80
2018-08-30T18:35:27.797Z,15.80
2018-08-30T18:37:59.290Z,15.80
2018-08-30T18:40:28.340Z,15.70
2018-08-30T18:42:57.513Z,15.60
2018-08-30T18:45:27.413Z,15.60
2018-08-30T18:47:56.937Z,15.60
2018-08-30T18:50:26.383Z,15.50
2018-08-30T18:52:56.519Z,15.50
2018-08-30T18:55:26.430Z,15.40
2018-08-30T18:57:56.241Z,15.40
2018-08-30T19:00:25.646Z,15.40
2018-08-30T19:02:55.606Z,15.30
2018-08-30T19:05:26.800Z,15.30
2018-08-30T19:07:57.594Z,15.30
2018-08-30T19:10:26.841Z,15.20
2018-08-30T19:12:57.338Z,15.20
2018-08-30T19:15:33.535Z,15.20
2018-08-30T19:18:07.938Z,15.20
2018-08-30T19:20:37.186Z,15.20
2018-08-30T19:23:06.350Z,15.20
2018-08-30T19:25:36.075Z,15.10
2018-08-30T19:28:05.204Z,15.10
2018-08-30T19:30:34.320Z,15.10
2018-08-30T19:33:03.410Z,15.10
2018-08-30T19:35:37.566Z,15.00
2018-08-30T19:38:06.816Z,15.00
2018-08-30T19:43:25.828Z,14.90
2018-08-30T19:45:55.507Z,14.90
2018-08-30T19:48:25.203Z,14.90
2018-08-30T19:50:56.036Z,14.80
2018-08-30T19:53:26.404Z,14.80
2018-08-30T19:55:56.229Z,14.80
2018-08-30T19:58:26.313Z,14.70
2018-08-30T20:00:56.106Z,14.80
2018-08-30T20:03:26.225Z,14.80
2018-08-30T20:05:56.203Z,14.70
2018-08-30T20:08:26.000Z,14.70
2018-08-30T20:10:57.920Z,14.70
2018-08-30T20:13:29.825Z,14.70
2018-08-30T20:16:01.575Z,14.60
2018-08-30T20:18:37.234Z,14.60
2018-08-30T20:21:07.345Z,14.60
2018-08-30T20:23:45.382Z,14.60
2018-08-30T20:26:16.278Z,14.60
2018-08-30T20:28:51.737Z,14.50
2018-08-30T20:31:34.490Z,14.50
2018-08-30T20:34:04.378Z,14.50
2018-08-30T20:36:33.610Z,14.50
2018-08-30T20:39:06.223Z,14.50
2018-08-30T20:41:35.561Z,14.50
2018-08-30T20:44:05.218Z,14.40
2018-08-30T20:46:37.085Z,14.40
2018-08-30T20:49:07.298Z,14.40
2018-08-30T20:51:38.096Z,14.30
2018-08-30T20:54:07.297Z,14.30
2018-08-30T20:56:36.851Z,14.30
2018-08-30T20:59:09.601Z,14.30
2018-08-30T21:01:49.947Z,14.30
2018-08-30T21:04:27.333Z,14.30
2018-08-30T21:06:58.816Z,14.30
2018-08-30T21:09:28.726Z,14.20
2018-08-30T21:11:59.479Z,14.20
2018-08-30T21:14:37.070Z,14.20
2018-08-30T21:17:07.768Z,14.20
2018-08-30T21:19:37.023Z,14.10
2018-08-30T21:22:06.563Z,14.10
2018-08-30T21:27:23.329Z,14.10
2018-08-30T21:29:53.105Z,14.10
2018-08-30T21:32:23.488Z,14.00
2018-08-30T21:34:53.418Z,14.00
2018-08-30T21:37:25.652Z,14.00
2018-08-30T21:40:02.083Z,13.90
2018-08-30T21:42:32.375Z,13.90
2018-08-30T21:45:18.437Z,13.90
2018-08-30T21:47:48.861Z,13.90
2018-08-30T21:50:17.897Z,13.80
2018-08-30T21:52:55.726Z,13.80
2018-08-30T21:55:27.808Z,13.80
2018-08-30T21:57:56.972Z,13.70
2018-08-30T22:00:34.698Z,13.70
2018-08-30T22:03:04.941Z,13.70
2018-08-30T22:05:35.063Z,13.60
2018-08-30T22:08:04.688Z,13.60
2018-08-30T22:10:36.072Z,13.60
2018-08-30T22:13:05.242Z,13.60
2018-08-30T22:15:36.710Z,13.60
2018-08-30T22:18:07.171Z,13.60
2018-08-30T22:20:36.271Z,13.50
2018-08-30T22:23:14.147Z,13.60
2018-08-30T22:25:43.199Z,13.50
2018-08-30T22:28:12.577Z,13.50
2018-08-30T22:30:41.561Z,13.50
2018-08-30T22:33:10.623Z,13.50
2018-08-30T22:35:39.678Z,13.40
2018-08-30T22:38:09.107Z,13.40
2018-08-30T22:40:38.224Z,13.30
2018-08-30T22:43:07.272Z,13.30
2018-08-30T22:45:36.271Z,13.30
2018-08-30T22:48:06.139Z,13.30
2018-08-30T22:50:35.428Z,13.30
2018-08-30T22:53:05.918Z,13.20
2018-08-30T22:55:35.650Z,13.20
2018-08-30T22:58:26.645Z,13.10
2018-08-30T23:01:03.609Z,13.10
2018-08-30T23:03:32.597Z,13.00
2018-08-30T23:06:01.665Z,13.00
2018-08-30T23:08:30.828Z,13.00
2018-08-30T23:11:02.163Z,13.00
2018-08-30T23:13:32.423Z,13.00
2018-08-30T23:16:02.339Z,12.90
2018-08-30T23:18:31.885Z,12.90
2018-08-30T23:21:01.075Z,12.90
2018-08-30T23:23:31.738Z,12.90
2018-08-30T23:26:00.776Z,12.80
2018-08-30T23:28:29.801Z,12.90
2018-08-30T23:30:58.774Z,12.90
2018-08-30T23:33:29.630Z,12.90
2018-08-30T23:35:58.658Z,12.90
2018-08-30T23:38:28.335Z,12.90
2018-08-30T23:41:06.560Z,12.80
2018-08-30T23:43:35.766Z,12.80
2018-08-30T23:46:05.010Z,12.80
2018-08-30T23:48:34.191Z,12.80
2018-08-30T23:51:09.325Z,12.80
2018-08-30T23:53:38.967Z,12.80
2018-08-30T23:56:08.197Z,12.70
2018-08-30T23:58:48.361Z,12.70
